Time;durP1;ratioP1;P1;durP2;ratioP2;P2;SDS_P1;SDS_P2;PMS_P1;PMS_P2;Temp;Humidity;BMP_temperature;BMP_pressure;BME280_temperature;BME280_humidity;BME280_pressure;Samples;Min_cycle;Max_cycle;Signal;HPM_P1;HPM_P2
2023/03/23 00:01:49;;;;;;;5.00;2.53;;;;;;;15.44;60.37;100203.88;4953225;28;114924;-71
2023/03/23 00:04:16;;;;;;;4.47;2.40;;;;;;;15.46;60.29;100207.28;4932686;28;115372;-71
2023/03/23 00:06:45;;;;;;;5.72;2.95;;;;;;;15.47;60.35;100198.31;4951075;28;124958;-71
2023/03/23 00:09:14;;;;;;;4.43;3.00;;;;;;;15.48;60.30;100194.66;4963364;28;123235;-71
2023/03/23 00:11:42;;;;;;;4.20;2.72;;;;;;;15.49;60.12;100191.03;4955662;28;114582;-71
2023/03/23 00:14:12;;;;;;;4.70;2.53;;;;;;;15.51;60.10;100202.44;4954573;28;114264;-70
2023/03/23 00:16:40;;;;;;;6.90;2.75;;;;;;;15.52;60.16;100214.81;4954260;28;122654;-71
2023/03/23 00:19:09;;;;;;;3.88;2.65;;;;;;;15.53;60.02;100213.84;4951326;28;124077;-71
2023/03/23 00:21:38;;;;;;;4.43;2.50;;;;;;;15.56;60.06;100202.94;4959425;28;114706;-71
2023/03/23 00:24:10;;;;;;;4.82;2.72;;;;;;;15.57;59.99;100188.63;4938168;28;115252;-71
2023/03/23 00:26:40;;;;;;;6.88;2.78;;;;;;;15.58;59.90;100195.69;4957041;28;123236;-71
2023/03/23 00:29:25;;;;;;;4.97;2.58;;;;;;;15.59;59.79;100213.38;4940011;28;122987;-71
2023/03/23 00:31:51;;;;;;;;;;;;;;;15.59;59.90;100213.38;4953666;28;114754;-71
2023/03/23 00:34:19;;;;;;;;;;;;;;;15.59;60.03;100205.38;4944457;28;114540;-71
2023/03/23 00:36:47;;;;;;;4.63;2.38;;;;;;;15.60;59.76;100208.91;4957961;28;126044;-72
2023/03/23 00:39:15;;;;;;;5.20;2.80;;;;;;;15.60;59.75;100207.09;4945121;28;124972;-71
2023/03/23 00:41:43;;;;;;;4.68;2.88;;;;;;;15.60;59.82;100204.41;4958727;28;114505;-71
2023/03/23 00:44:16;;;;;;;4.97;3.03;;;;;;;15.60;59.63;100193.72;4960951;28;113707;-71
2023/03/23 00:46:48;;;;;;;5.32;3.00;;;;;;;15.60;59.85;100199.06;4954663;28;123969;-71
2023/03/23 00:49:17;;;;;;;5.05;2.63;;;;;;;15.62;59.74;100207.81;4945020;28;122905;-71
2023/03/23 00:51:43;;;;;;;5.78;2.80;;;;;;;15.62;59.61;100197.13;4937049;28;115460;-71
2023/03/23 00:54:10;;;;;;;4.57;2.75;;;;;;;15.66;59.71;100203.09;4958330;28;114547;-71
2023/03/23 00:56:37;;;;;;;4.32;2.80;;;;;;;15.66;59.61;100214.63;4937251;28;121979;-71
2023/03/23 00:59:03;;;;;;;5.82;2.92;;;;;;;15.66;59.55;100198.59;4954398;28;123361;-71
2023/03/23 01:01:30;;;;;;;4.75;2.90;;;;;;;15.68;59.68;100191.31;4960771;28;113549;-71
2023/03/23 01:04:00;;;;;;;5.70;2.70;;;;;;;15.70;59.29;100173.34;4940454;28;113733;-71
2023/03/23 01:06:28;;;;;;;4.13;2.75;;;;;;;15.71;59.36;100180.41;4942579;28;123392;-71
2023/03/23 01:08:54;;;;;;;6.57;2.90;;;;;;;15.71;59.43;100175.06;4949243;28;123522;-71
2023/03/23 01:11:20;;;;;;;5.13;2.65;;;;;;;15.73;59.31;100178.50;4952222;28;114781;-71
2023/03/23 01:13:46;;;;;;;3.95;2.75;;;;;;;15.74;59.35;100188.19;4951191;28;114563;-71
2023/03/23 01:16:13;;;;;;;4.35;2.78;;;;;;;15.75;59.36;100181.91;4961210;28;123509;-72
2023/03/23 01:18:39;;;;;;;7.60;2.92;;;;;;;15.76;59.33;100183.63;4942226;28;124160;-71
2023/03/23 01:21:12;;;;;;;4.80;2.65;;;;;;;15.79;59.35;100192.34;4929844;28;113677;-71
2023/03/23 01:23:39;;;;;;;5.78;3.20;;;;;;;15.82;59.38;100202.78;4949922;28;112927;-71
2023/03/23 01:26:26;;;;;;;4.28;3.08;;;;;;;15.82;59.52;100186.75;4952273;28;124304;-72
2023/03/23 01:28:53;;;;;;;7.53;2.72;;;;;;;15.83;59.41;100167.13;4926173;28;123554;-71
2023/03/23 01:31:22;;;;;;;5.32;3.10;;;;;;;15.81;59.49;100151.22;4949075;28;113872;-71
2023/03/23 01:33:50;;;;;;;4.10;3.00;;;;;;;15.81;59.44;100137.00;4953979;28;113553;-71
2023/03/23 01:36:28;;;;;;;7.00;3.30;;;;;;;15.77;59.48;100131.91;4939415;28;123652;-71
2023/03/23 01:39:03;;;;;;;4.82;2.70;;;;;;;15.76;59.34;100135.56;4949681;28;122947;-71
2023/03/23 01:41:32;;;;;;;4.80;2.90;;;;;;;15.75;59.50;100120.50;4933657;28;114481;-71
2023/03/23 01:44:05;;;;;;;3.97;2.70;;;;;;;15.73;59.45;100114.44;4949720;28;115184;-71
2023/03/23 01:46:39;;;;;;;7.13;2.97;;;;;;;15.71;59.64;100116.34;4922840;28;123601;-71
2023/03/23 01:49:12;;;;;;;5.65;2.80;;;;;;;15.70;59.51;100117.28;4952089;28;124017;-72
2023/03/23 01:51:46;;;;;;;4.68;2.92;;;;;;;15.68;59.27;100116.56;4953835;28;113906;-71
2023/03/23 01:54:19;;;;;;;4.60;2.83;;;;;;;15.68;59.40;100108.56;4965481;28;113871;-71
2023/03/23 01:57:10;;;;;;;4.38;2.90;;;;;;;15.66;59.49;100118.50;4955739;28;123676;-71
2023/03/23 01:59:37;;;;;;;4.18;2.97;;;;;;;15.65;59.52;100116.81;4939824;28;125510;-72
2023/03/23 02:02:21;;;;;;;4.55;2.88;;;;;;;15.65;59.69;100127.50;4941184;28;114317;-73
2023/03/23 02:04:48;;;;;;;5.32;2.90;;;;;;;15.64;59.65;100125.78;4945981;28;113879;-71
2023/03/23 02:07:18;;;;;;;5.00;2.65;;;;;;;15.65;59.54;100122.16;4948701;28;123554;-71
2023/03/23 02:09:44;;;;;;;4.93;2.88;;;;;;;15.66;59.61;100113.16;4946734;28;123201;-71
2023/03/23 02:12:11;;;;;;;4.65;2.90;;;;;;;15.67;59.50;100104.22;4955084;28;113476;-71
2023/03/23 02:14:38;;;;;;;5.03;2.92;;;;;;;15.68;59.54;100089.88;4921559;28;113738;-71
2023/03/23 02:17:10;;;;;;;6.00;3.05;;;;;;;15.69;59.55;100088.91;4948202;28;124291;-71
2023/03/23 02:20:06;;;;;;;4.03;2.70;;;;;;;15.69;59.53;100091.59;4915541;28;123055;-71
2023/03/23 02:23:02;;;;;;;5.17;2.87;;;;;;;15.69;59.53;100086.25;4949615;28;113298;-70
2023/03/23 02:25:53;;;;;;;6.15;3.17;;;;;;;15.69;59.52;100075.56;4943706;28;113765;-71
2023/03/23 02:28:37;;;;;;;5.00;3.17;;;;;;;15.69;59.48;100086.25;4948158;28;125508;-71
2023/03/23 02:31:13;;;;;;;3.67;2.50;;;;;;;15.70;59.44;100066.56;4949655;28;123719;-71
2023/03/23 02:33:47;;;;;;;4.38;2.95;;;;;;;15.70;59.50;100071.91;4954349;28;115204;-71
2023/03/23 02:36:24;;;;;;;5.07;2.70;;;;;;;15.71;59.46;100068.28;4948664;28;114999;-71
2023/03/23 02:39:03;;;;;;;5.30;2.97;;;;;;;15.73;59.28;100061.03;4961567;28;123406;-71
2023/03/23 02:41:36;;;;;;;5.50;2.70;;;;;;;15.74;59.19;100068.06;4951362;28;123325;-71
2023/03/23 02:44:03;;;;;;;5.22;2.50;;;;;;;15.75;59.40;100085.78;4952076;28;113874;-71
2023/03/23 02:46:30;;;;;;;4.15;2.58;;;;;;;15.78;59.20;100068.66;4961250;28;113603;-71
2023/03/23 02:48:57;;;;;;;3.97;2.83;;;;;;;15.80;59.02;100071.22;4947739;28;123445;-71
2023/03/23 02:51:25;;;;;;;4.25;2.50;;;;;;;15.83;58.90;100076.31;4953315;28;124263;-71
2023/03/23 02:53:54;;;;;;;3.83;2.90;;;;;;;15.84;59.07;100061.97;4949945;28;113579;-71
2023/03/23 02:56:24;;;;;;;4.32;2.83;;;;;;;15.86;58.98;100070.72;4937485;28;112871;-71
2023/03/23 02:58:50;;;;;;;4.07;2.60;;;;;;;15.88;58.93;100063.44;4949783;28;123313;-71
2023/03/23 03:01:26;;;;;;;4.25;2.92;;;;;;;15.89;58.87;100070.50;4952380;28;124641;-71
2023/03/23 03:03:54;;;;;;;4.20;2.63;;;;;;;15.91;58.87;100079.22;4951173;28;114148;-71
2023/03/23 03:06:44;;;;;;;4.30;2.75;;;;;;;15.93;58.77;100077.28;4935023;28;113101;-71
2023/03/23 03:09:14;;;;;;;5.18;2.72;;;;;;;15.94;58.75;100068.31;4950405;28;123803;-71
2023/03/23 03:11:48;;;;;;;5.47;3.20;;;;;;;15.94;58.75;100074.50;4956472;28;123584;-71
2023/03/23 03:14:21;;;;;;;3.60;2.45;;;;;;;15.98;58.69;100072.44;4963913;28;114840;-71
2023/03/23 03:16:59;;;;;;;3.85;2.90;;;;;;;15.99;58.69;100071.44;4935170;28;113262;-71
2023/03/23 03:19:40;;;;;;;5.45;3.10;;;;;;;16.01;58.53;100072.19;4951129;28;123336;-71
2023/03/23 03:22:07;;;;;;;5.70;3.08;;;;;;;16.01;58.54;100074.88;4953479;28;122865;-71
2023/03/23 03:24:40;;;;;;;4.13;2.83;;;;;;;16.02;58.60;100076.53;4952331;28;115162;-71
2023/03/23 03:27:14;;;;;;;5.15;2.60;;;;;;;16.03;58.59;100074.72;4962365;28;114313;-71
2023/03/23 03:29:59;;;;;;;4.43;2.65;;;;;;;16.03;58.58;100072.03;4936749;28;123388;-71
2023/03/23 03:32:38;;;;;;;5.88;3.00;;;;;;;16.04;58.55;100071.94;4923457;28;123700;-71
2023/03/23 03:35:06;;;;;;;3.97;3.13;;;;;;;16.04;58.51;100063.06;4936341;28;114814;-72
2023/03/23 03:37:37;;;;;;;4.85;2.85;;;;;;;16.04;58.50;100069.25;4954134;28;113232;-71
2023/03/23 03:40:11;;;;;;;5.20;3.15;;;;;;;16.06;58.52;100077.16;4952872;28;123661;-71
2023/03/23 03:42:41;;;;;;;4.80;2.95;;;;;;;16.06;58.60;100075.31;4954322;28;123260;-71
2023/03/23 03:45:10;;;;;;;5.25;3.10;;;;;;;16.06;58.43;100072.66;4944940;28;114291;-72
2023/03/23 03:47:36;;;;;;;5.50;2.85;;;;;;;16.07;58.52;100079.69;4938012;28;113031;-71
2023/03/23 03:50:03;;;;;;;4.22;2.83;;;;;;;16.08;58.44;100084.06;4959993;28;123233;-71
2023/03/23 03:52:31;;;;;;;5.03;3.13;;;;;;;16.08;58.52;100086.72;4952429;28;123640;-71
2023/03/23 03:54:58;;;;;;;5.68;3.17;;;;;;;16.07;58.42;100082.38;4946840;28;114899;-71
2023/03/23 03:57:25;;;;;;;5.15;3.03;;;;;;;16.09;58.49;100082.25;4938635;28;113971;-71
2023/03/23 03:59:57;;;;;;;5.55;2.88;;;;;;;16.09;58.38;100080.44;4960764;28;124293;-71
2023/03/23 04:02:23;;;;;;;5.38;3.10;;;;;;;16.09;58.56;100083.09;4949109;28;124525;-71
2023/03/23 04:04:52;;;;;;;4.28;2.90;;;;;;;16.09;58.39;100076.91;4949130;28;114380;-71
2023/03/23 04:07:19;;;;;;;4.30;2.95;;;;;;;16.09;58.50;100083.09;4947463;28;114174;-71
2023/03/23 04:09:47;;;;;;;4.10;2.92;;;;;;;16.11;58.10;100075.81;4954470;28;123734;-71
2023/03/23 04:12:15;;;;;;;7.60;3.20;;;;;;;16.11;58.13;100091.84;4957254;28;124008;-71
2023/03/23 04:15:11;;;;;;;;;;;;;;;16.09;58.31;100088.44;4938518;28;115984;-71
2023/03/23 04:17:37;;;;;;;4.03;2.60;;;;;;;16.11;58.31;100091.00;4925603;28;113537;-71
2023/03/23 04:20:13;;;;;;;4.72;2.83;;;;;;;16.10;58.11;100092.78;4953940;28;123968;-71
2023/03/23 04:22:43;;;;;;;5.30;2.70;;;;;;;16.11;58.01;100094.50;4955158;28;125782;-71
2023/03/23 04:25:11;;;;;;;4.32;2.53;;;;;;;16.10;57.95;100090.13;4924690;28;113667;-71
2023/03/23 04:27:43;;;;;;;6.15;2.70;;;;;;;16.10;57.90;100090.13;4959491;28;113141;-71
2023/03/23 04:30:11;;;;;;;6.55;2.85;;;;;;;16.11;57.82;100091.84;4957853;28;123561;-71
2023/03/23 04:32:45;;;;;;;5.43;2.50;;;;;;;16.11;57.72;100097.19;4955018;28;123176;-71
2023/03/23 04:35:15;;;;;;;6.60;2.38;;;;;;;16.11;57.47;100107.88;4957792;28;114160;-70
2023/03/23 04:37:47;;;;;;;6.38;2.42;;;;;;;16.11;57.45;100105.19;4947166;28;113119;-71
2023/03/23 04:40:17;;;;;;;4.80;2.20;;;;;;;16.11;57.50;100105.19;4938387;28;123716;-71
2023/03/23 04:42:57;;;;;;;7.75;2.13;;;;;;;16.11;57.23;100107.88;4942107;28;96873;-70
2023/03/23 04:45:51;;;;;;;7.28;2.17;;;;;;;16.12;57.31;100109.56;4949315;28;113979;-71
2023/03/23 04:48:19;;;;;;;7.50;2.22;;;;;;;16.12;57.28;100120.25;4946465;28;113539;-71
2023/03/23 04:51:00;;;;;;;6.82;2.03;;;;;;;16.13;57.20;100116.59;4939537;28;123569;-71
2023/03/23 04:53:30;;;;;;;5.78;1.90;;;;;;;16.13;56.97;100121.94;4945505;28;123570;-71
2023/03/23 04:55:56;;;;;;;7.18;2.10;;;;;;;16.13;56.88;100126.44;4945171;28;114427;-70
2023/03/23 04:58:24;;;;;;;5.68;2.08;;;;;;;16.14;56.83;100129.00;4942396;28;113345;-71
2023/03/23 05:01:04;;;;;;;5.35;1.70;;;;;;;16.14;56.73;100112.09;4942593;28;123657;-71
2023/03/23 05:03:34;;;;;;;5.40;1.80;;;;;;;16.15;56.58;100114.66;4940357;28;123014;-71
2023/03/23 05:06:04;;;;;;;4.60;1.90;;;;;;;16.15;56.52;100114.66;4956350;28;115816;-71
2023/03/23 05:08:31;;;;;;;6.40;1.52;;;;;;;16.15;56.38;100117.31;4937973;28;114570;-71
2023/03/23 05:11:00;;;;;;;5.78;1.70;;;;;;;16.15;56.21;100120.00;4918252;28;123189;-71
2023/03/23 05:13:28;;;;;;;6.15;1.75;;;;;;;16.15;56.32;100119.16;4953995;28;122283;-70
2023/03/23 05:15:57;;;;;;;5.68;1.70;;;;;;;16.15;56.24;100117.31;4955195;28;114261;-71
2023/03/23 05:18:23;;;;;;;5.38;1.92;;;;;;;16.18;56.18;100118.06;4951293;28;113134;-71
2023/03/23 05:20:52;;;;;;;5.93;1.92;;;;;;;16.17;55.94;100122.56;4961484;28;122360;-71
2023/03/23 05:23:20;;;;;;;5.13;1.60;;;;;;;16.17;56.01;100121.72;4943076;28;123502;-71
2023/03/23 05:26:00;;;;;;;9.35;1.90;;;;;;;16.16;56.03;100120.84;4961413;28;114763;-71
2023/03/23 05:28:28;;;;;;;5.50;1.42;;;;;;;16.17;55.86;100121.72;4947489;28;112429;-71
2023/03/23 05:31:02;;;;;;;5.45;1.55;;;;;;;16.15;55.88;100120.00;4941347;28;124099;-71
2023/03/23 05:33:31;;;;;;;8.07;1.95;;;;;;;16.15;55.98;100120.00;4944363;28;123607;-70
2023/03/23 05:36:15;;;;;;;5.95;1.70;;;;;;;16.14;55.96;100118.31;4959030;28;115396;-71
2023/03/23 05:39:03;;;;;;;8.27;1.85;;;;;;;16.15;55.83;100120.00;4946850;28;113993;-71
2023/03/23 05:41:44;;;;;;;8.20;1.80;;;;;;;16.14;55.87;100131.69;4959325;28;124085;-71
2023/03/23 05:44:10;;;;;;;4.28;1.58;;;;;;;16.17;55.66;100133.25;4961716;28;125069;-71
2023/03/23 05:46:46;;;;;;;8.88;2.13;;;;;;;16.14;55.70;100131.69;4937345;28;114259;-71
2023/03/23 05:49:15;;;;;;;8.48;1.88;;;;;;;16.15;55.64;100140.53;4923018;28;113503;-71
2023/03/23 05:51:44;;;;;;;5.93;1.67;;;;;;;16.14;55.60;100134.34;4955149;28;123387;-71
2023/03/23 05:54:12;;;;;;;4.07;1.60;;;;;;;16.14;55.64;100129.00;4953773;28;124319;-71
2023/03/23 05:56:38;;;;;;;6.40;1.48;;;;;;;16.14;55.64;100123.66;4963267;28;114928;-71
2023/03/23 05:59:15;;;;;;;5.22;2.20;;;;;;;16.12;55.62;100125.59;4941388;28;114373;-71
2023/03/23 06:01:44;;;;;;;5.78;1.50;;;;;;;16.12;55.73;100138.97;4946630;28;123273;-71
2023/03/23 06:04:11;;;;;;;7.57;1.95;;;;;;;16.12;55.71;100136.28;4938810;28;123208;-71
2023/03/23 06:06:49;;;;;;;4.97;1.90;;;;;;;16.11;55.76;100123.06;4947452;28;113568;-71
2023/03/23 06:09:16;;;;;;;4.75;1.80;;;;;;;16.10;55.78;100126.69;4961528;28;113636;-71
2023/03/23 06:12:09;;;;;;;10.18;2.20;;;;;;;16.10;55.96;100132.03;4961150;28;123742;-71
2023/03/23 06:14:52;;;;;;;5.88;2.05;;;;;;;16.10;56.00;100148.06;4957084;28;123489;-71
2023/03/23 06:17:24;;;;;;;5.82;2.20;;;;;;;16.06;55.96;100142.09;4939167;28;113995;-71
2023/03/23 06:19:53;;;;;;;5.90;2.10;;;;;;;16.04;56.10;100138.69;4953762;28;113763;-71
2023/03/23 06:22:20;;;;;;;6.13;2.10;;;;;;;16.03;56.01;100145.03;4965730;28;124579;-70
2023/03/23 06:25:08;;;;;;;5.93;2.40;;;;;;;16.02;56.31;100151.34;4944605;28;123503;-71
2023/03/23 06:27:40;;;;;;;8.98;2.20;;;;;;;16.02;56.28;100156.69;4944575;28;112750;-71
2023/03/23 06:30:08;;;;;;;6.63;2.30;;;;;;;16.02;56.34;100156.69;4961177;28;113824;-71
2023/03/23 06:32:35;;;;;;;6.65;2.30;;;;;;;16.02;56.49;100172.69;4942715;28;123962;-71
2023/03/23 06:35:02;;;;;;;4.45;2.28;;;;;;;16.02;56.54;100178.03;4965024;28;123610;-71
2023/03/23 06:37:41;;;;;;;5.53;2.00;;;;;;;16.03;56.46;100182.44;4958051;28;114265;-71
2023/03/23 06:40:18;;;;;;;4.57;2.03;;;;;;;16.02;56.49;100199.41;4964140;28;113636;-71
2023/03/23 06:42:50;;;;;;;8.02;2.40;;;;;;;16.02;56.53;100196.75;4941422;28;123273;-70
2023/03/23 06:45:35;;;;;;;6.90;2.20;;;;;;;16.01;56.57;100196.84;4959656;28;123804;-71
2023/03/23 06:48:32;;;;;;;9.38;2.00;;;;;;;16.01;56.54;100192.38;4962836;28;115306;-71
2023/03/23 06:50:59;;;;;;;5.43;2.08;;;;;;;16.01;56.57;100192.38;4945793;28;114337;-71
2023/03/23 06:53:27;;;;;;;6.68;2.05;;;;;;;16.00;56.42;100193.34;4958448;28;123640;-71
2023/03/23 06:55:56;;;;;;;4.40;1.77;;;;;;;16.01;56.69;100203.06;4977093;28;123484;-71
2023/03/23 06:58:23;;;;;;;6.57;2.25;;;;;;;15.99;56.39;100207.66;4958627;28;113961;-71
2023/03/23 07:00:56;;;;;;;6.18;2.33;;;;;;;15.98;56.53;100202.47;4937016;28;113212;-71
2023/03/23 07:03:28;;;;;;;6.68;2.35;;;;;;;15.96;56.47;100199.91;4960561;28;123755;-72
2023/03/23 07:05:55;;;;;;;6.70;2.00;;;;;;;15.96;56.58;100199.91;4961973;28;123741;-70
2023/03/23 07:08:26;;;;;;;8.43;2.20;;;;;;;15.97;56.59;100201.59;4967143;28;113665;-70
2023/03/23 07:10:53;;;;;;;9.52;2.05;;;;;;;15.98;56.50;100207.81;4953054;28;113373;-71
2023/03/23 07:13:23;;;;;;;7.45;2.10;;;;;;;15.99;56.57;100209.47;4934434;28;123724;-71
2023/03/23 07:15:54;;;;;;;5.80;2.30;;;;;;;15.99;56.72;100210.31;4942320;28;123959;-71
2023/03/23 07:18:21;;;;;;;5.43;1.88;;;;;;;16.00;56.63;100206.69;4968753;28;113922;-71
2023/03/23 07:20:51;;;;;;;4.93;2.03;;;;;;;15.99;56.60;100209.47;4947901;28;113546;-70
2023/03/23 07:23:19;;;;;;;7.32;2.00;;;;;;;15.98;56.67;100208.63;4965234;28;123554;-71
2023/03/23 07:25:51;;;;;;;7.00;2.13;;;;;;;15.96;56.74;100215.94;4950792;28;124014;-71
2023/03/23 07:28:23;;;;;;;6.30;1.85;;;;;;;15.95;56.71;100224.88;4948640;28;114082;-71
2023/03/23 07:30:51;;;;;;;5.25;2.10;;;;;;;15.93;56.75;100237.53;4946473;28;113686;-71
2023/03/23 07:33:17;;;;;;;7.72;2.38;;;;;;;15.91;56.93;100252.81;4960759;28;122991;-71
2023/03/23 07:35:43;;;;;;;8.38;2.20;;;;;;;15.89;56.76;100241.41;4943912;28;123064;-71
2023/03/23 07:38:13;;;;;;;5.65;1.80;;;;;;;15.84;56.88;100233.75;4946156;28;114477;-71
2023/03/23 07:40:42;;;;;;;3.95;1.67;;;;;;;15.79;56.88;100235.06;4943969;28;115357;-71
2023/03/23 07:43:14;;;;;;;8.68;1.80;;;;;;;15.74;57.12;100233.59;4961898;28;123706;-71
2023/03/23 07:46:13;;;;;;;5.53;2.00;;;;;;;15.68;57.36;100228.69;4959782;28;124017;-71
2023/03/23 07:48:48;;;;;;;9.85;2.33;;;;;;;15.63;57.53;100233.53;4938089;28;113309;-71
2023/03/23 07:51:18;;;;;;;7.72;1.90;;;;;;;15.60;57.53;100230.25;4944710;28;113477;-71
2023/03/23 07:53:51;;;;;;;9.32;1.75;;;;;;;15.54;57.61;100232.41;4934815;28;123426;-71
2023/03/23 07:56:39;;;;;;;4.78;1.80;;;;;;;15.46;57.74;100239.28;4953542;28;125527;-71
2023/03/23 07:59:25;;;;;;;6.28;1.80;;;;;;;15.40;57.68;100245.94;4936225;28;114536;-71
2023/03/23 08:01:53;;;;;;;2.15;1.30;;;;;;;15.32;57.68;100248.34;4950699;28;113042;-71
2023/03/23 08:04:44;;;;;;;4.50;1.55;;;;;;;15.23;58.00;100236.53;4937485;28;123271;-71
2023/03/23 08:07:34;;;;;;;4.82;1.60;;;;;;;15.15;57.94;100261.09;4946877;28;124375;-71
2023/03/23 08:10:37;;;;;;;2.35;1.00;;;;;;;15.05;57.64;100259.22;4939438;28;113933;-71
2023/03/23 08:13:18;;;;;;;1.73;0.73;;;;;;;14.95;57.34;100267.03;4951884;28;113636;-71
2023/03/23 08:16:03;;;;;;;3.90;1.00;;;;;;;14.84;57.38;100262.47;4952348;28;124804;-71
2023/03/23 08:18:52;;;;;;;1.67;0.70;;;;;;;14.75;57.26;100269.34;4959757;28;124316;-71
2023/03/23 08:21:41;;;;;;;2.05;0.85;;;;;;;14.69;57.39;100271.59;4957790;28;114020;-71
2023/03/23 08:24:34;;;;;;;3.00;0.70;;;;;;;14.60;57.43;100268.63;4956894;28;112363;-71
2023/03/23 08:27:22;;;;;;;2.33;0.90;;;;;;;14.56;57.48;100272.44;4952732;28;124264;-71
2023/03/23 08:30:07;;;;;;;1.85;0.90;;;;;;;14.53;57.60;100283.31;4943317;28;124139;-71
2023/03/23 08:32:52;;;;;;;1.95;0.82;;;;;;;14.53;57.72;100288.63;4962502;28;115858;-71
2023/03/23 08:35:36;;;;;;;2.27;0.80;;;;;;;14.51;57.86;100279.91;4935430;28;114510;-71
2023/03/23 08:38:32;;;;;;;1.83;0.80;;;;;;;14.51;57.81;100279.91;4952126;28;123894;-71
2023/03/23 08:41:27;;;;;;;2.10;0.80;;;;;;;14.51;57.95;100290.56;4925992;28;124485;-71
2023/03/23 08:44:19;;;;;;;2.15;0.80;;;;;;;14.51;58.14;100285.22;4940114;28;114021;-71
2023/03/23 08:46:56;;;;;;;3.15;1.10;;;;;;;14.51;58.19;100301.22;4949632;28;115460;-71
2023/03/23 08:49:42;;;;;;;4.30;1.15;;;;;;;14.52;58.43;100308.28;4968686;28;124818;-71
2023/03/23 08:52:43;;;;;;;4.32;1.23;;;;;;;14.54;58.45;100305.47;4956945;28;123482;-71
2023/03/23 08:55:35;;;;;;;3.80;1.30;;;;;;;14.56;58.40;100293.75;4966203;28;114573;-71
2023/03/23 08:58:29;;;;;;;2.45;1.00;;;;;;;14.62;58.60;100286.31;4966250;28;114109;-71
2023/03/23 09:01:07;;;;;;;4.30;1.13;;;;;;;14.67;58.52;100294.84;4952903;28;123680;-71
2023/03/23 09:03:43;;;;;;;4.72;1.40;;;;;;;14.72;58.65;100292.69;4956181;28;124607;-71
2023/03/23 09:06:27;;;;;;;3.83;1.23;;;;;;;14.77;58.45;100301.22;4939231;28;113548;-71
2023/03/23 09:08:55;;;;;;;3.97;1.02;;;;;;;14.82;58.46;100309.72;4951741;28;113087;-71
2023/03/23 09:11:22;;;;;;;2.55;0.98;;;;;;;14.85;58.26;100298.84;4966904;28;124382;-71
2023/03/23 09:13:48;;;;;;;3.30;1.05;;;;;;;14.89;58.23;100300.34;4968148;28;123781;-71
2023/03/23 09:16:14;;;;;;;2.35;0.90;;;;;;;14.92;58.04;100305.47;4964763;28;114529;-71
2023/03/23 09:18:40;;;;;;;3.08;0.85;;;;;;;14.96;57.89;100296.28;4947886;28;113628;-71
2023/03/23 09:21:06;;;;;;;5.70;1.13;;;;;;;15.02;57.66;100283.47;4947787;28;123593;-71
2023/03/23 09:23:32;;;;;;;4.35;1.33;;;;;;;15.09;57.90;100300.72;4958459;28;124079;-71
2023/03/23 09:26:03;;;;;;;3.78;1.00;;;;;;;15.17;58.00;100298.34;4948870;28;114502;-71
2023/03/23 09:28:30;;;;;;;5.55;0.98;;;;;;;15.25;57.77;100285.28;4943330;28;114486;-71
2023/03/23 09:30:57;;;;;;;5.10;1.13;;;;;;;15.31;57.38;100279.53;4950194;28;123958;-71
2023/03/23 09:33:24;;;;;;;5.35;1.25;;;;;;;15.40;57.51;100271.78;4948497;28;124123;-71
2023/03/23 09:35:50;;;;;;;3.78;1.10;;;;;;;15.50;57.67;100280.78;4933026;28;114308;-71
2023/03/23 09:38:16;;;;;;;4.13;1.05;;;;;;;15.62;57.85;100290.56;4933125;28;111970;-71
2023/03/23 09:40:58;;;;;;;6.05;1.15;;;;;;;15.74;57.67;100308.34;4949351;28;124251;-71
2023/03/23 09:44:10;;;;;;;4.93;1.27;;;;;;;15.83;57.25;100295.28;4972095;28;124209;-71
2023/03/23 09:46:46;;;;;;;3.20;1.08;;;;;;;15.86;56.82;100313.72;4917850;28;113622;-71
2023/03/23 09:49:34;;;;;;;4.40;1.30;;;;;;;15.86;56.69;100316.41;4893312;28;113643;-71
2023/03/23 09:52:17;;;;;;;5.95;1.10;;;;;;;15.87;56.55;100329.63;4925334;28;123638;-72
2023/03/23 09:54:50;;;;;;;2.83;1.17;;;;;;;15.87;56.39;100318.97;4939687;28;124967;-70
2023/03/23 09:57:38;;;;;;;2.55;1.10;;;;;;;15.86;56.20;100322.63;4956558;28;113964;-71
2023/03/23 10:00:15;;;;;;;5.97;1.30;;;;;;;15.87;56.32;100328.78;4957043;28;113387;-71
2023/03/23 10:02:51;;;;;;;3.00;1.00;;;;;;;15.89;56.51;100326.84;4954288;28;124304;-71
2023/03/23 10:05:37;;;;;;;4.82;1.50;;;;;;;15.93;56.34;100336.34;4955833;28;124098;-71
2023/03/23 10:08:11;;;;;;;;;;;;;;;15.99;56.72;100330.53;4960388;28;114115;-71
2023/03/23 10:11:10;;;;;;;5.00;1.15;;;;;;;16.06;56.28;100334.44;4958216;28;113288;-71
2023/03/23 10:14:14;;;;;;;6.38;1.20;;;;;;;16.13;56.42;100335.69;4951173;28;123903;-72
2023/03/23 10:16:47;;;;;;;4.35;1.23;;;;;;;16.19;56.51;100333.50;4959304;28;123658;-71
2023/03/23 10:19:23;;;;;;;2.80;1.10;;;;;;;16.25;56.51;100330.34;4934705;28;115281;-71
2023/03/23 10:21:59;;;;;;;5.40;1.33;;;;;;;16.33;56.37;100346.63;4969523;28;115241;-71
2023/03/23 10:24:36;;;;;;;4.78;1.30;;;;;;;16.41;56.32;100333.56;4945450;28;123924;-71
2023/03/23 10:27:18;;;;;;;4.28;1.33;;;;;;;16.49;56.35;100335.63;4957254;28;122839;-71
2023/03/23 10:30:02;;;;;;;5.30;1.10;;;;;;;16.58;56.22;100339.41;4959027;28;114399;-71
2023/03/23 10:32:40;;;;;;;3.40;1.20;;;;;;;16.65;56.23;100340.59;4952806;28;113782;-71
2023/03/23 10:35:13;;;;;;;3.17;1.40;;;;;;;16.73;56.14;100348.91;4954038;28;123697;-71
2023/03/23 10:37:46;;;;;;;4.88;1.40;;;;;;;16.84;56.29;100362.31;4961880;28;124007;-71
2023/03/23 10:40:17;;;;;;;5.65;1.20;;;;;;;16.95;56.13;100360.59;4944794;28;113267;-71
2023/03/23 10:42:43;;;;;;;5.05;1.50;;;;;;;17.08;56.19;100358.63;4956725;28;113830;-71
2023/03/23 10:45:17;;;;;;;6.00;1.60;;;;;;;17.20;55.69;100356.81;4969608;28;124628;-72
2023/03/23 10:47:50;;;;;;;3.65;1.40;;;;;;;17.31;55.92;100357.63;4950582;28;122908;-71
2023/03/23 10:50:23;;;;;;;3.30;1.27;;;;;;;17.41;55.52;100356.91;4945060;28;114018;-72
2023/03/23 10:52:51;;;;;;;4.55;1.60;;;;;;;17.48;54.98;100371.50;4961115;28;113659;-72
2023/03/23 10:55:22;;;;;;;5.95;1.38;;;;;;;17.53;55.02;100363.91;4956282;28;123943;-71
2023/03/23 10:58:09;;;;;;;4.15;1.40;;;;;;;17.59;55.03;100374.09;4953358;28;123499;-72
2023/03/23 11:00:44;;;;;;;3.53;1.35;;;;;;;17.64;54.41;100366.56;4958787;28;113163;-72
2023/03/23 11:03:14;;;;;;;6.25;1.50;;;;;;;17.67;54.30;100366.31;4953954;28;113831;-71
2023/03/23 11:05:50;;;;;;;5.35;1.50;;;;;;;17.70;54.23;100355.31;4951076;28;124393;-72
2023/03/23 11:08:22;;;;;;;5.10;1.40;;;;;;;17.73;53.92;100358.75;4952933;28;121905;-72
2023/03/23 11:10:57;;;;;;;5.10;1.90;;;;;;;17.73;53.86;100350.72;4955661;28;114896;-72
2023/03/23 11:13:31;;;;;;;5.20;1.55;;;;;;;17.74;53.58;100355.09;4951657;28;114905;-72
2023/03/23 11:15:58;;;;;;;7.32;1.88;;;;;;;17.76;53.67;100355.81;4945418;28;124185;-71
2023/03/23 11:18:46;;;;;;;5.13;1.52;;;;;;;17.77;53.91;100350.31;4962405;28;124856;-71
2023/03/23 11:21:14;;;;;;;3.72;1.50;;;;;;;17.84;53.71;100339.97;4968299;28;116895;-71
2023/03/23 11:23:42;;;;;;;4.60;1.60;;;;;;;17.91;53.92;100338.47;4956927;28;114447;-71
2023/03/23 11:26:15;;;;;;;3.75;1.50;;;;;;;17.99;53.75;100344.06;4943767;28;123462;-70
2023/03/23 11:28:57;;;;;;;5.45;1.75;;;;;;;18.02;53.24;100345.63;4951516;28;124524;-71
2023/03/23 11:31:43;;;;;;;3.78;1.70;;;;;;;18.02;53.36;100354.50;4944242;28;114616;-72
2023/03/23 11:34:19;;;;;;;5.80;1.50;;;;;;;18.06;53.57;100350.59;4959472;28;114920;-71
2023/03/23 11:36:53;;;;;;;7.85;2.13;;;;;;;18.15;53.50;100358.84;4948041;28;124820;-72
2023/03/23 11:39:25;;;;;;;4.97;1.73;;;;;;;18.21;53.22;100359.16;4930182;28;123410;-72
2023/03/23 11:41:51;;;;;;;6.15;1.70;;;;;;;18.27;53.40;100347.06;4945411;28;114318;-71
2023/03/23 11:44:17;;;;;;;6.05;1.60;;;;;;;18.35;53.11;100352.63;4961336;28;114299;-71
2023/03/23 11:47:09;;;;;;;4.18;1.58;;;;;;;18.40;52.72;100358.44;4963361;28;124235;-71
2023/03/23 11:49:57;;;;;;;4.30;1.67;;;;;;;18.44;52.63;100359.88;4966128;28;124264;-72
2023/03/23 11:52:31;;;;;;;7.18;1.60;;;;;;;18.45;52.52;100366.09;4949504;28;114183;-72